createdAt,value
2024-05-09T00:00:41.508Z,55.23
2024-05-09T00:03:10.770Z,55.57
2024-05-09T00:05:41.259Z,55.92
2024-05-09T00:08:09.883Z,56.43
2024-05-09T00:10:39.152Z,56.67
2024-05-09T00:13:08.538Z,56.93
2024-05-09T00:15:36.700Z,56.95
2024-05-09T00:18:05.844Z,56.76
2024-05-09T00:20:38.721Z,56.64
2024-05-09T00:23:09.475Z,56.38
2024-05-09T00:25:37.668Z,56.13
2024-05-09T00:28:05.108Z,55.98
2024-05-09T00:30:35.592Z,56.15
2024-05-09T00:33:09.301Z,55.95
2024-05-09T00:35:37.763Z,55.67
2024-05-09T00:38:05.364Z,55.69
2024-05-09T00:40:40.861Z,55.97
2024-05-09T00:43:11.247Z,55.65
2024-05-09T00:45:38.955Z,55.52
2024-05-09T00:48:09.427Z,55.90
2024-05-09T00:50:41.657Z,54.91
2024-05-09T00:53:12.052Z,55.53
2024-05-09T00:55:40.476Z,55.14
2024-05-09T00:58:11.188Z,56.36
2024-05-09T01:00:40.654Z,55.91
2024-05-09T01:03:12.133Z,55.56
2024-05-09T01:05:41.457Z,55.60
2024-05-09T01:08:10.253Z,55.23
2024-05-09T01:10:38.519Z,55.40
2024-05-09T01:13:07.058Z,55.56
2024-05-09T01:15:35.890Z,55.74
2024-05-09T01:18:11.657Z,55.52
2024-05-09T01:20:43.164Z,55.15
2024-05-09T01:23:14.566Z,55.49
2024-05-09T01:25:43.819Z,55.22
2024-05-09T01:28:11.497Z,55.00
2024-05-09T01:30:41.639Z,55.12
2024-05-09T01:33:10.747Z,54.92
2024-05-09T01:35:41.690Z,55.23
2024-05-09T01:38:12.824Z,55.47
2024-05-09T01:40:40.601Z,55.52
2024-05-09T01:43:10.048Z,55.39
2024-05-09T01:45:38.808Z,55.88
2024-05-09T01:48:06.828Z,55.96
2024-05-09T01:50:39.388Z,56.06
2024-05-09T01:53:10.451Z,55.85
2024-05-09T01:55:37.955Z,56.47
2024-05-09T01:58:05.553Z,56.19
2024-05-09T02:00:39.184Z,55.97
2024-05-09T02:03:12.320Z,56.08
2024-05-09T02:05:43.066Z,56.38
2024-05-09T02:08:17.568Z,56.63
2024-05-09T02:10:46.020Z,56.04
2024-05-09T02:13:13.884Z,56.19
2024-05-09T02:15:41.144Z,56.86
2024-05-09T02:18:09.156Z,56.72
2024-05-09T02:20:39.693Z,56.56
2024-05-09T02:23:07.457Z,56.34
2024-05-09T02:25:35.016Z,56.75
2024-05-09T02:28:02.364Z,56.75
2024-05-09T02:30:38.633Z,56.99
2024-05-09T02:33:13.571Z,56.89
2024-05-09T02:35:43.336Z,56.60
2024-05-09T02:38:11.861Z,57.02
2024-05-09T02:40:40.228Z,56.96
2024-05-09T02:43:10.144Z,57.43
2024-05-09T02:45:41.799Z,56.81
2024-05-09T02:48:13.530Z,57.13
2024-05-09T02:50:42.056Z,56.80
2024-05-09T02:53:10.200Z,57.27
2024-05-09T02:55:40.793Z,57.25
2024-05-09T02:58:08.331Z,57.12
2024-05-09T03:00:39.891Z,57.52
2024-05-09T03:03:12.508Z,57.28
2024-05-09T03:05:42.178Z,56.59
2024-05-09T03:08:09.903Z,57.47
2024-05-09T03:10:38.895Z,57.18
2024-05-09T03:13:15.308Z,57.08
2024-05-09T03:15:44.238Z,56.93
2024-05-09T03:18:12.511Z,56.88
2024-05-09T03:20:40.398Z,56.95
2024-05-09T03:23:09.712Z,56.85
2024-05-09T03:25:37.961Z,56.54
2024-05-09T03:28:05.656Z,57.24
2024-05-09T03:30:40.139Z,57.32
2024-05-09T03:33:19.153Z,57.60
2024-05-09T03:35:48.424Z,57.75
2024-05-09T03:38:16.321Z,57.42
2024-05-09T03:40:50.596Z,57.12
2024-05-09T03:43:19.424Z,57.71
2024-05-09T03:45:49.540Z,57.72
2024-05-09T03:48:17.330Z,57.64
2024-05-09T03:50:44.911Z,58.41
2024-05-09T03:53:14.094Z,57.78
2024-05-09T03:55:41.706Z,57.84
2024-05-09T03:58:09.473Z,57.44
2024-05-09T04:00:39.387Z,57.95
2024-05-09T04:03:10.327Z,57.90
2024-05-09T04:05:41.467Z,57.82
2024-05-09T04:08:10.568Z,58.10
2024-05-09T04:10:38.202Z,57.99
2024-05-09T04:13:05.656Z,58.25
2024-05-09T04:15:33.195Z,57.98
2024-05-09T04:18:01.267Z,58.22
2024-05-09T04:20:37.100Z,58.07
2024-05-09T04:23:08.347Z,58.02
2024-05-09T04:25:37.386Z,57.97
2024-05-09T04:28:05.463Z,58.26
2024-05-09T04:30:38.604Z,58.32
2024-05-09T04:33:11.932Z,58.60
2024-05-09T04:35:45.028Z,58.96
2024-05-09T04:38:14.455Z,58.83
2024-05-09T04:40:42.387Z,58.90
2024-05-09T04:43:16.170Z,58.77
2024-05-09T04:45:43.754Z,58.26
2024-05-09T04:48:11.588Z,58.48
2024-05-09T04:50:39.849Z,58.02
2024-05-09T04:53:11.546Z,58.65
2024-05-09T04:55:40.072Z,58.15
2024-05-09T04:58:09.253Z,58.40
2024-05-09T05:00:38.878Z,57.97
2024-05-09T05:03:10.861Z,58.06
2024-05-09T05:05:41.463Z,57.74
2024-05-09T05:08:17.315Z,57.19
2024-05-09T05:10:47.087Z,56.96
2024-05-09T05:13:25.167Z,57.12
2024-05-09T05:15:57.502Z,56.81
2024-05-09T05:18:28.940Z,56.91
2024-05-09T05:20:57.251Z,57.08
2024-05-09T05:23:25.286Z,56.92
2024-05-09T05:25:55.297Z,56.42
2024-05-09T05:28:23.394Z,57.10
2024-05-09T05:30:50.840Z,56.22
2024-05-09T05:33:18.955Z,56.54
2024-05-09T05:35:46.933Z,55.99
2024-05-09T05:38:14.488Z,56.19
2024-05-09T05:40:41.921Z,56.12
2024-05-09T05:43:15.934Z,56.00
2024-05-09T05:45:44.058Z,55.47
2024-05-09T05:48:11.709Z,54.89
2024-05-09T05:50:39.156Z,55.55
2024-05-09T05:53:08.390Z,55.08
2024-05-09T05:55:37.055Z,55.46
2024-05-09T05:58:04.572Z,55.82
2024-05-09T06:00:38.469Z,55.70
2024-05-09T06:03:08.597Z,55.88
2024-05-09T06:05:37.605Z,55.67
2024-05-09T06:08:05.394Z,55.63
2024-05-09T06:10:38.294Z,55.58
2024-05-09T06:13:10.455Z,56.13
2024-05-09T06:15:37.931Z,55.95
2024-05-09T06:18:06.814Z,55.90
2024-05-09T06:20:37.021Z,56.62
2024-05-09T06:23:10.079Z,56.32
2024-05-09T06:25:38.567Z,56.88
2024-05-09T06:28:06.522Z,56.34
2024-05-09T06:30:40.083Z,56.88
2024-05-09T06:33:11.806Z,57.33
2024-05-09T06:35:41.308Z,57.38
2024-05-09T06:38:09.552Z,57.54
2024-05-09T06:40:40.089Z,57.07
2024-05-09T06:43:17.781Z,58.00
2024-05-09T06:45:49.926Z,57.98
2024-05-09T06:48:21.040Z,59.04
2024-05-09T06:50:49.401Z,58.59
2024-05-09T06:53:17.811Z,58.47
2024-05-09T06:55:45.295Z,58.47
2024-05-09T06:58:12.899Z,58.65
2024-05-09T07:00:41.754Z,58.93
2024-05-09T07:03:16.980Z,58.82
2024-05-09T07:05:47.244Z,57.93
2024-05-09T07:08:15.932Z,57.08
2024-05-09T07:10:43.672Z,57.66
2024-05-09T07:13:12.364Z,57.25
2024-05-09T07:15:40.757Z,57.08
2024-05-09T07:18:19.968Z,56.74
2024-05-09T07:20:49.712Z,56.85
2024-05-09T07:23:18.447Z,57.07
2024-05-09T07:25:46.158Z,57.36
2024-05-09T07:28:18.672Z,57.06
2024-05-09T07:30:46.371Z,56.79
2024-05-09T07:33:23.149Z,57.70
2024-05-09T07:35:51.981Z,57.29
2024-05-09T07:38:19.499Z,56.64
2024-05-09T07:40:47.056Z,57.20
2024-05-09T07:43:14.976Z,56.98
2024-05-09T07:45:51.111Z,56.65
2024-05-09T07:52:37.731Z,56.57
2024-05-09T07:53:47.672Z,56.02
2024-05-09T07:56:19.915Z,56.06
2024-05-09T07:58:50.900Z,56.80
2024-05-09T08:01:19.203Z,56.91
2024-05-09T08:03:49.536Z,56.48
2024-05-09T08:06:17.042Z,56.89
2024-05-09T08:08:46.583Z,57.30
2024-05-09T08:11:13.867Z,56.13
2024-05-09T08:13:41.318Z,55.93
2024-05-09T08:16:09.955Z,56.34
2024-05-09T08:18:37.515Z,56.26
2024-05-09T08:21:05.176Z,56.25
2024-05-09T08:23:32.685Z,56.71
2024-05-09T08:26:00.047Z,56.20
2024-05-09T08:28:28.111Z,56.54
2024-05-09T08:30:56.910Z,56.45
2024-05-09T08:33:24.426Z,56.11
2024-05-09T08:35:54.282Z,56.18
2024-05-09T08:38:21.604Z,55.70
2024-05-09T08:40:49.487Z,55.98
2024-05-09T08:43:20.154Z,56.21
2024-05-09T08:45:50.215Z,56.15
2024-05-09T08:48:20.280Z,55.98
2024-05-09T08:50:50.759Z,55.33
2024-05-09T08:53:18.097Z,55.44
2024-05-09T08:55:46.934Z,55.47
2024-05-09T08:58:16.959Z,55.63
2024-05-09T09:00:46.000Z,55.57
2024-05-09T09:03:17.938Z,55.78
2024-05-09T09:05:59.500Z,55.29
2024-05-09T09:08:26.988Z,55.02
2024-05-09T09:10:58.280Z,54.55
2024-05-09T09:13:29.008Z,54.25
2024-05-09T09:16:00.044Z,53.64
2024-05-09T09:18:28.654Z,52.87
2024-05-09T09:20:56.799Z,53.30
2024-05-09T09:23:24.110Z,52.25
2024-05-09T09:25:52.075Z,52.36
2024-05-09T09:28:23.225Z,52.67
2024-05-09T09:30:50.878Z,52.97
2024-05-09T09:33:19.090Z,52.78
2024-05-09T09:35:46.679Z,53.64
2024-05-09T09:38:23.123Z,52.48
2024-05-09T09:40:51.193Z,51.28
2024-05-09T09:43:20.933Z,50.92
2024-05-09T09:45:53.389Z,51.35
2024-05-09T09:48:22.643Z,50.92
2024-05-09T09:50:51.967Z,50.84
2024-05-09T09:53:20.152Z,50.33
2024-05-09T09:55:47.496Z,50.56
2024-05-09T09:58:16.655Z,50.53
2024-05-09T10:00:45.134Z,50.86
2024-05-09T10:03:13.571Z,50.53
2024-05-09T10:05:45.022Z,50.42
2024-05-09T10:08:15.981Z,49.84
2024-05-09T10:10:47.937Z,50.71
2024-05-09T10:13:16.326Z,50.59
2024-05-09T10:15:48.559Z,49.62
2024-05-09T10:18:16.429Z,50.16
2024-05-09T10:20:45.125Z,50.62
2024-05-09T10:23:30.313Z,50.80
2024-05-09T10:25:59.126Z,50.88
2024-05-09T10:28:33.318Z,50.34
2024-05-09T10:31:08.851Z,50.24
2024-05-09T10:33:50.070Z,50.13
2024-05-09T10:36:22.816Z,49.89
2024-05-09T10:38:50.661Z,49.31
2024-05-09T10:41:19.184Z,49.69
2024-05-09T10:43:47.673Z,50.33
2024-05-09T10:46:16.942Z,49.96
2024-05-09T10:48:44.689Z,50.10
2024-05-09T10:51:13.707Z,49.83
2024-05-09T10:53:46.051Z,49.92
2024-05-09T10:56:17.216Z,50.60
2024-05-09T10:58:45.653Z,48.85
2024-05-09T11:01:14.084Z,49.56
2024-05-09T11:03:41.876Z,49.52
2024-05-09T11:06:09.975Z,49.53
2024-05-09T11:08:38.286Z,50.42
2024-05-09T11:11:08.125Z,49.74
2024-05-09T11:13:38.010Z,49.30
2024-05-09T11:16:07.852Z,48.96
2024-05-09T11:18:38.225Z,50.07
2024-05-09T11:21:13.835Z,50.38
2024-05-09T11:23:41.713Z,49.91
2024-05-09T11:26:10.873Z,50.00
2024-05-09T11:28:38.341Z,50.41
2024-05-09T11:31:10.706Z,50.01
2024-05-09T11:33:39.917Z,50.17
2024-05-09T11:36:08.807Z,49.42
2024-05-09T11:38:36.436Z,50.13
2024-05-09T11:41:05.060Z,49.17
2024-05-09T11:43:32.756Z,48.72
2024-05-09T11:46:00.506Z,47.19
2024-05-09T11:48:28.163Z,46.91
2024-05-09T11:50:57.529Z,46.95
2024-05-09T11:53:24.824Z,46.81
2024-05-09T11:55:52.111Z,46.52
2024-05-09T11:58:21.405Z,46.75
2024-05-09T12:00:49.045Z,46.63
2024-05-09T12:03:16.704Z,47.61
2024-05-09T12:05:44.162Z,46.89
2024-05-09T12:08:11.615Z,45.18
2024-05-09T12:10:39.174Z,44.88
2024-05-09T12:13:07.414Z,44.55
2024-05-09T12:15:39.030Z,45.43
2024-05-09T12:18:08.092Z,44.41
2024-05-09T12:20:39.192Z,44.10
2024-05-09T12:23:09.969Z,44.70
2024-05-09T12:25:39.164Z,44.21
2024-05-09T12:28:07.631Z,44.67
2024-05-09T12:30:39.781Z,45.57
2024-05-09T12:33:12.712Z,46.04
2024-05-09T12:35:44.098Z,45.52
2024-05-09T12:38:18.370Z,46.04
2024-05-09T12:40:45.672Z,45.10
2024-05-09T12:43:13.063Z,45.38
2024-05-09T12:45:40.915Z,44.31
2024-05-09T12:48:12.173Z,44.52
2024-05-09T12:50:41.644Z,45.23
2024-05-09T12:53:09.363Z,43.48
2024-05-09T12:55:44.249Z,44.46
2024-05-09T12:58:21.934Z,43.47
2024-05-09T13:00:49.804Z,43.66
2024-05-09T13:03:17.374Z,43.69
2024-05-09T13:05:45.471Z,43.10
2024-05-09T13:08:13.979Z,42.46
2024-05-09T13:10:41.780Z,41.76
2024-05-09T13:13:12.337Z,42.47
2024-05-09T13:15:40.076Z,41.94
2024-05-09T13:18:07.838Z,42.04
2024-05-09T13:20:37.095Z,42.33
2024-05-09T13:23:07.018Z,42.47
2024-05-09T13:25:35.510Z,42.76
2024-05-09T13:28:04.050Z,42.40
2024-05-09T13:30:39.300Z,42.26
2024-05-09T13:33:13.930Z,42.84
2024-05-09T13:35:47.200Z,43.01
2024-05-09T13:38:19.073Z,43.52
2024-05-09T13:40:47.209Z,43.18
2024-05-09T13:43:14.862Z,43.09
2024-05-09T13:45:42.758Z,43.63
2024-05-09T13:48:10.657Z,43.44
2024-05-09T13:50:39.185Z,46.00
2024-05-09T13:53:07.863Z,47.21
2024-05-09T13:55:38.621Z,47.67
2024-05-09T13:58:07.118Z,48.81
2024-05-09T14:00:44.283Z,49.25
2024-05-09T14:03:16.634Z,49.88
2024-05-09T14:05:45.702Z,50.11
2024-05-09T14:08:15.362Z,50.12
2024-05-09T14:10:45.074Z,50.37
2024-05-09T14:13:13.364Z,50.40
2024-05-09T14:15:41.196Z,51.18
2024-05-09T14:18:12.439Z,50.63
2024-05-09T14:20:41.139Z,50.85
2024-05-09T14:23:08.469Z,51.44
2024-05-09T14:25:39.910Z,50.93
2024-05-09T14:28:09.322Z,50.07
2024-05-09T14:30:38.334Z,50.49
2024-05-09T14:33:07.825Z,50.33
2024-05-09T14:35:37.797Z,50.32
2024-05-09T14:38:06.611Z,50.11
2024-05-09T14:40:40.896Z,49.98
2024-05-09T14:43:15.352Z,50.26
2024-05-09T14:45:43.870Z,49.66
2024-05-09T14:48:12.517Z,49.84
2024-05-09T14:50:40.867Z,49.75
2024-05-09T14:53:10.298Z,49.65
2024-05-09T14:55:39.967Z,49.66
2024-05-09T14:58:09.542Z,48.87
2024-05-09T15:00:46.013Z,49.55
2024-05-09T15:03:17.774Z,49.09
2024-05-09T15:05:45.801Z,49.32
2024-05-09T15:08:13.335Z,48.67
2024-05-09T15:10:40.990Z,48.41
2024-05-09T15:13:10.392Z,48.50
2024-05-09T15:15:40.347Z,48.66
2024-05-09T15:18:07.907Z,48.57
2024-05-09T15:20:37.164Z,49.30
2024-05-09T15:23:07.075Z,47.48
2024-05-09T15:25:36.255Z,47.75
2024-05-09T15:28:07.632Z,48.35
2024-05-09T15:30:35.608Z,48.19
2024-05-09T15:33:04.170Z,47.85
2024-05-09T15:35:32.255Z,48.02
2024-05-09T15:38:00.397Z,48.67
2024-05-09T15:40:37.222Z,48.34
2024-05-09T15:43:08.865Z,48.41
2024-05-09T15:45:37.600Z,49.28
2024-05-09T15:48:06.015Z,49.13
2024-05-09T15:50:38.849Z,49.59
2024-05-09T15:53:10.119Z,49.84
2024-05-09T15:55:38.776Z,50.32
2024-05-09T15:58:07.416Z,50.54
2024-05-09T16:00:39.410Z,50.34
2024-05-09T16:03:14.298Z,49.95
2024-05-09T16:05:46.160Z,50.19
2024-05-09T16:08:15.323Z,50.38
2024-05-09T16:10:45.996Z,50.22
2024-05-09T16:13:14.626Z,50.10
2024-05-09T16:15:43.092Z,50.38
2024-05-09T16:18:10.946Z,50.80
2024-05-09T16:20:41.193Z,50.77
2024-05-09T16:23:10.387Z,50.63
2024-05-09T16:25:38.205Z,49.72
2024-05-09T16:28:09.722Z,49.58
2024-05-09T16:30:39.828Z,49.39
2024-05-09T16:33:08.626Z,50.11
2024-05-09T16:35:37.416Z,49.61
2024-05-09T16:38:05.952Z,49.53
2024-05-09T16:40:38.286Z,49.25
2024-05-09T16:43:12.540Z,49.29
2024-05-09T16:45:41.918Z,49.43
2024-05-09T16:48:09.563Z,49.10
2024-05-09T16:50:37.164Z,49.66
2024-05-09T16:53:05.837Z,49.70
2024-05-09T16:55:34.378Z,49.76
2024-05-09T16:58:02.486Z,49.86
2024-05-09T17:00:39.384Z,49.72
2024-05-09T17:03:11.919Z,49.90
2024-05-09T17:05:40.655Z,49.87
2024-05-09T17:08:08.650Z,50.32
2024-05-09T17:10:36.631Z,50.51
2024-05-09T17:13:06.256Z,50.17
2024-05-09T17:15:35.473Z,50.59
2024-05-09T17:18:03.768Z,50.00
2024-05-09T17:20:34.746Z,51.19
2024-05-09T17:23:06.041Z,50.53
2024-05-09T17:25:34.433Z,50.19
2024-05-09T17:28:07.580Z,50.31
2024-05-09T17:30:38.207Z,50.67
2024-05-09T17:33:09.574Z,50.85
2024-05-09T17:35:38.143Z,51.14
2024-05-09T17:38:06.582Z,51.13
2024-05-09T17:40:36.671Z,51.38
2024-05-09T17:43:06.953Z,51.22
2024-05-09T17:45:40.352Z,50.74
2024-05-09T17:48:10.357Z,50.96
2024-05-09T17:50:38.746Z,51.34
2024-05-09T17:53:06.837Z,50.84
2024-05-09T17:55:34.540Z,50.91
2024-05-09T17:58:02.482Z,50.95
2024-05-09T18:00:37.630Z,50.88
2024-05-09T18:03:10.583Z,50.93
2024-05-09T18:05:38.565Z,51.13
2024-05-09T18:08:09.432Z,51.64
2024-05-09T18:10:39.696Z,51.54
2024-05-09T18:13:08.951Z,51.33
2024-05-09T18:15:36.951Z,51.16
2024-05-09T18:18:05.448Z,51.50
2024-05-09T18:20:41.604Z,51.34
2024-05-09T18:23:13.974Z,51.47
2024-05-09T18:25:42.064Z,51.67
2024-05-09T18:28:09.580Z,52.15
2024-05-09T18:30:37.599Z,52.09
2024-05-09T18:33:11.234Z,52.04
2024-05-09T18:35:39.168Z,52.46
2024-05-09T18:38:06.497Z,52.44
2024-05-09T18:40:36.714Z,52.50
2024-05-09T18:43:07.990Z,53.29
2024-05-09T18:45:38.188Z,53.06
2024-05-09T18:48:07.339Z,53.52
2024-05-09T18:50:38.591Z,53.38
2024-05-09T18:53:08.317Z,52.92
2024-05-09T18:55:36.213Z,52.63
2024-05-09T18:58:05.043Z,53.22
2024-05-09T19:00:36.386Z,52.67
2024-05-09T19:03:12.355Z,53.10
2024-05-09T19:05:43.011Z,53.21
2024-05-09T19:08:11.389Z,53.14
2024-05-09T19:10:39.620Z,53.34
2024-05-09T19:13:12.874Z,53.16
2024-05-09T19:15:42.675Z,53.56
2024-05-09T19:18:11.809Z,53.23
2024-05-09T19:20:39.644Z,53.38
2024-05-09T19:23:07.587Z,53.37
2024-05-09T19:25:36.611Z,53.25
2024-05-09T19:28:05.611Z,53.90
2024-05-09T19:30:38.943Z,53.63
2024-05-09T19:33:10.343Z,54.03
2024-05-09T19:35:38.852Z,53.77
2024-05-09T19:38:06.660Z,54.07
2024-05-09T19:40:35.196Z,53.92
2024-05-09T19:43:05.265Z,54.09
2024-05-09T19:45:34.585Z,53.88
2024-05-09T19:48:03.101Z,53.97
2024-05-09T19:50:37.399Z,53.62
2024-05-09T19:53:11.249Z,53.85
2024-05-09T19:55:39.037Z,54.00
2024-05-09T19:58:07.558Z,54.01
2024-05-09T20:00:38.620Z,53.91
2024-05-09T20:03:08.604Z,54.19
2024-05-09T20:05:36.768Z,54.18
2024-05-09T20:08:04.972Z,54.36
2024-05-09T20:10:34.628Z,54.29
2024-05-09T20:13:04.331Z,54.73
2024-05-09T20:15:34.102Z,54.21
2024-05-09T20:18:01.825Z,54.19
2024-05-09T20:20:37.311Z,54.46
2024-05-09T20:23:09.087Z,54.77
2024-05-09T20:25:36.617Z,54.78
2024-05-09T20:28:04.259Z,54.54
2024-05-09T20:30:34.594Z,53.97
2024-05-09T20:33:04.935Z,54.50
2024-05-09T20:35:33.613Z,54.53
2024-05-09T20:38:02.022Z,54.71
2024-05-09T20:40:34.602Z,54.63
2024-05-09T20:43:06.834Z,54.82
2024-05-09T20:45:34.968Z,53.94
2024-05-09T20:48:02.757Z,54.11
2024-05-09T20:50:37.498Z,54.15
2024-05-09T20:53:10.893Z,54.35
2024-05-09T20:55:38.669Z,54.14
2024-05-09T20:58:06.107Z,54.36
2024-05-09T21:00:40.003Z,54.72
2024-05-09T21:03:11.698Z,54.08
2024-05-09T21:05:40.003Z,54.07
2024-05-09T21:08:08.030Z,54.00
2024-05-09T21:10:37.095Z,53.69
2024-05-09T21:13:05.466Z,53.76
2024-05-09T21:15:33.681Z,53.74
2024-05-09T21:18:01.133Z,53.69
2024-05-09T21:20:31.576Z,53.47
2024-05-09T21:23:01.305Z,53.35
2024-05-09T21:25:28.989Z,53.56
2024-05-09T21:27:56.245Z,53.86
2024-05-09T21:30:32.607Z,54.04
2024-05-09T21:33:14.717Z,54.01
2024-05-09T21:35:44.622Z,54.44
2024-05-09T21:38:13.915Z,54.10
2024-05-09T21:40:41.456Z,54.08
2024-05-09T21:43:08.909Z,54.00
2024-05-09T21:45:37.262Z,53.80
2024-05-09T21:48:06.020Z,54.20
2024-05-09T21:50:39.777Z,53.84
2024-05-09T21:53:09.834Z,54.15
2024-05-09T21:55:37.146Z,54.24
2024-05-09T21:58:04.577Z,53.96
2024-05-09T22:00:36.673Z,54.05
2024-05-09T22:03:10.883Z,54.16
2024-05-09T22:05:42.073Z,54.05
2024-05-09T22:08:10.137Z,54.42
2024-05-09T22:10:37.704Z,54.03
2024-05-09T22:13:06.494Z,54.20
2024-05-09T22:15:39.583Z,54.51
2024-05-09T22:18:09.009Z,54.26
2024-05-09T22:20:43.712Z,54.02
2024-05-09T22:23:12.308Z,53.91
2024-05-09T22:25:39.693Z,53.84
2024-05-09T22:28:07.364Z,53.89
2024-05-09T22:30:38.416Z,53.78
2024-05-09T22:33:09.888Z,54.00
2024-05-09T22:35:38.577Z,54.17
2024-05-09T22:38:06.083Z,54.18
2024-05-09T22:40:43.004Z,54.26
2024-05-09T22:43:23.728Z,54.41
2024-05-09T22:45:55.057Z,53.89
2024-05-09T22:48:24.222Z,53.99
2024-05-09T22:50:52.617Z,54.28
2024-05-09T22:53:23.837Z,54.13
2024-05-09T22:55:51.252Z,53.76
2024-05-09T22:58:19.308Z,53.94
2024-05-09T23:00:46.874Z,53.86
2024-05-09T23:03:16.611Z,54.37
2024-05-09T23:05:44.118Z,54.50
2024-05-09T23:08:11.394Z,54.57
2024-05-09T23:10:38.877Z,54.39
2024-05-09T23:13:07.970Z,54.10
2024-05-09T23:15:37.851Z,53.96
2024-05-09T23:18:05.668Z,53.78
2024-05-09T23:20:37.917Z,54.01
2024-05-09T23:23:08.819Z,53.85
2024-05-09T23:25:37.255Z,53.99
2024-05-09T23:28:05.030Z,54.10
2024-05-09T23:30:38.000Z,53.79
2024-05-09T23:33:08.838Z,54.27
2024-05-09T23:35:36.387Z,54.00
2024-05-09T23:38:03.949Z,54.07
2024-05-09T23:40:38.474Z,54.39
2024-05-09T23:43:09.385Z,54.66
2024-05-09T23:45:37.276Z,54.55
2024-05-09T23:48:05.297Z,54.44
2024-05-09T23:50:37.177Z,54.20
2024-05-09T23:53:08.056Z,54.40
2024-05-09T23:55:36.689Z,54.44
2024-05-09T23:58:04.207Z,54.59
